createdAt,value
2018-07-30T00:04:29.132Z,66.17
2018-07-30T00:14:29.214Z,65.37
2018-07-30T00:24:29.129Z,69.87
2018-07-30T00:34:29.143Z,71.74
2018-07-30T00:44:29.151Z,68.33
2018-07-30T00:54:29.128Z,69.39
2018-07-30T01:04:29.138Z,72.48
2018-07-30T01:14:29.211Z,71.03
2018-07-30T01:24:29.154Z,74.41
2018-07-30T01:34:29.159Z,77.01
2018-07-30T01:44:29.158Z,77.01
2018-07-30T01:54:29.163Z,77.11
2018-07-30T02:04:29.147Z,79.33
2018-07-30T02:14:29.165Z,79.04
2018-07-30T02:24:29.153Z,77.5
2018-07-30T02:34:29.161Z,79
2018-07-30T02:44:29.145Z,80.45
2018-07-30T02:54:29.168Z,79.39
2018-07-30T03:04:29.146Z,79.35
2018-07-30T03:14:29.158Z,82.05
2018-07-30T03:24:29.147Z,81.85
2018-07-30T03:34:29.163Z,80.69
2018-07-30T03:44:29.188Z,80.79
2018-07-30T03:54:29.159Z,81.14
2018-07-30T04:04:29.183Z,82.39
2018-07-30T04:14:29.172Z,83.55
2018-07-30T04:24:29.167Z,84.7
2018-07-30T04:34:29.181Z,84.8
2018-07-30T04:44:29.172Z,84.52
2018-07-30T04:54:29.207Z,84.27
2018-07-30T05:04:29.178Z,84.46
2018-07-30T05:14:29.185Z,83.92
2018-07-30T05:24:29.168Z,78.27
2018-07-30T05:34:29.220Z,77.22
2018-07-30T05:44:29.193Z,77.57
2018-07-30T05:54:29.180Z,76.8
2018-07-30T06:04:29.162Z,77.13
2018-07-30T06:14:29.174Z,74.13
2018-07-30T06:24:29.183Z,70.34
2018-07-30T06:34:29.162Z,68.79
2018-07-30T06:44:29.245Z,66.05
2018-07-30T06:54:29.221Z,54.66
2018-07-30T07:04:29.208Z,48.85
2018-07-30T07:14:29.195Z,39.27
2018-07-30T07:24:29.238Z,33.44
2018-07-30T07:34:29.253Z,29.14
2018-07-30T07:44:29.194Z,25.68
2018-07-30T07:54:29.247Z,23.68
2018-07-30T08:04:29.233Z,22.54
2018-07-30T08:14:29.226Z,25.59
2018-07-30T08:24:29.241Z,22.85
2018-07-30T08:34:29.197Z,23.63
2018-07-30T08:44:29.228Z,28.69
2018-07-30T08:54:29.387Z,30.44
2018-07-30T09:04:29.251Z,29.02
2018-07-30T09:14:29.324Z,33.67
2018-07-30T09:24:29.209Z,35.18
2018-07-30T09:34:29.251Z,37.93
2018-07-30T09:44:29.288Z,39.03
2018-07-30T09:54:29.260Z,40.84
2018-07-30T10:04:29.280Z,41.41
2018-07-30T10:14:29.302Z,41.6
2018-07-30T10:24:29.289Z,41.41
2018-07-30T10:34:29.296Z,41.89
2018-07-30T10:44:29.260Z,42.9
2018-07-30T10:54:29.296Z,42.7
2018-07-30T11:04:29.299Z,42.99
2018-07-30T11:14:29.311Z,42.78
2018-07-30T11:24:29.310Z,42.72
2018-07-30T11:34:29.344Z,42.62
2018-07-30T11:44:29.529Z,43.43
2018-07-30T11:54:29.464Z,42.27
2018-07-30T12:04:29.332Z,41.66
2018-07-30T12:14:29.317Z,40.16
2018-07-30T12:24:29.301Z,39.78
2018-07-30T12:34:29.322Z,41.55
2018-07-30T12:44:29.343Z,41.11
2018-07-30T12:54:29.338Z,41.09
2018-07-30T13:04:29.394Z,41.61
2018-07-30T13:14:29.306Z,39.54
2018-07-30T13:24:29.391Z,40.21
2018-07-30T13:34:29.330Z,39.8
2018-07-30T13:44:29.371Z,38.93
2018-07-30T13:54:29.514Z,38.29
2018-07-30T14:04:29.355Z,37.01
2018-07-30T14:14:29.553Z,36.44
2018-07-30T14:24:29.388Z,36.9
2018-07-30T14:34:29.494Z,37.76
2018-07-30T14:44:30.099Z,37.99
2018-07-30T14:54:29.347Z,36.63
2018-07-30T15:04:29.414Z,36.26
2018-07-30T15:14:29.340Z,35.18
2018-07-30T15:24:29.354Z,35.1
2018-07-30T15:34:29.417Z,34.82
2018-07-30T15:44:30.933Z,36.26
2018-07-30T15:54:30.102Z,37.03
2018-07-30T16:04:29.441Z,37.99
2018-07-30T16:14:31.137Z,38.19
2018-07-30T16:24:34.464Z,38.7
2018-07-30T16:34:36.481Z,40.03
2018-07-30T16:54:29.399Z,39.84
2018-07-30T17:04:29.382Z,38.93
2018-07-30T17:14:29.443Z,40.11
2018-07-30T17:24:29.390Z,39.9
2018-07-30T17:34:30.828Z,41.74
2018-07-30T17:44:30.168Z,41.23
2018-07-30T17:54:30.235Z,42.19
2018-07-30T18:04:29.880Z,44.52
2018-07-30T18:14:29.418Z,45.55
2018-07-30T18:24:29.453Z,46.97
2018-07-30T18:34:29.460Z,48.71
2018-07-30T18:44:29.419Z,51.97
2018-07-30T18:54:29.456Z,51.95
2018-07-30T19:04:29.422Z,54.36
2018-07-30T19:14:30.139Z,54.99
2018-07-30T19:24:30.887Z,56.81
2018-07-30T19:34:31.124Z,59.38
2018-07-30T19:44:31.207Z,61
2018-07-30T19:54:31.169Z,62.71
2018-07-30T20:04:30.404Z,63.33
2018-07-30T20:14:30.420Z,66.79
2018-07-30T20:24:31.270Z,68.79
2018-07-30T20:34:29.450Z,72.18
2018-07-30T20:44:29.445Z,71.37
2018-07-30T20:54:29.503Z,72.44
2018-07-30T21:04:29.481Z,71.47
2018-07-30T21:14:29.470Z,71.86
2018-07-30T21:24:29.544Z,69.82
2018-07-30T21:34:36.572Z,69.53
2018-07-30T21:44:39.176Z,71.76
2018-07-30T21:54:33.010Z,73.11
2018-07-30T22:14:35.038Z,77.01
2018-07-30T22:24:30.577Z,77.36
2018-07-30T22:34:35.902Z,79.16
2018-07-30T22:44:35.475Z,81.29
2018-07-30T22:54:30.489Z,78.38
2018-07-30T23:04:35.831Z,76.78
2018-07-30T23:14:40.194Z,74.55
2018-07-30T23:24:37.100Z,73.91
2018-07-30T23:34:29.507Z,72.66
2018-07-30T23:44:32.567Z,73.24
2018-07-30T23:54:29.488Z,75.65
